Time,TemperatureF,DewpointF,PressureIn,WindDirection,WindDirectionDegrees,WindSpeedMPH,WindSpeedGustMPH,Humidity,HourlyPrecipIn,Conditions,Clouds,dailyrainin,SoftwareType,DateUTC
2013-09-28 00:02:00,57.4,52.6,30.04,WSW,237,2.0,2.0,84,0.00,,,0.00,WeatherCatV1.21B27,2013-09-28 07:02:00,
2013-09-28 00:07:00,57.3,52.5,30.04,SW,232,1.0,2.0,84,0.00,,,0.00,WeatherCatV1.21B27,2013-09-28 07:07:00,
2013-09-28 00:12:00,57.6,49.0,30.04,WSW,240,3.0,3.0,73,0.00,,,0.00,WeatherCatV1.21B27,2013-09-28 07:12:00,
2013-09-28 00:17:00,58.7,47.8,30.04,WSW,252,3.0,4.0,67,0.00,,,0.00,WeatherCatV1.21B27,2013-09-28 07:17:00,
2013-09-28 00:22:00,59.5,46.9,30.04,WSW,242,2.0,4.0,63,0.00,,,0.00,WeatherCatV1.21B27,2013-09-28 07:22:00,
2013-09-28 00:27:00,59.9,46.4,30.04,SW,226,3.0,3.0,61,0.00,,,0.00,WeatherCatV1.21B27,2013-09-28 07:27:00,
2013-09-28 00:32:00,60.0,46.5,30.04,WSW,241,2.0,4.0,61,0.00,,,0.00,WeatherCatV1.21B27,2013-09-28 07:32:00,
2013-09-28 00:37:00,60.1,46.6,30.04,SW,229,3.0,4.0,61,0.00,,,0.00,WeatherCatV1.21B27,2013-09-28 07:37:00,
2013-09-28 00:42:00,60.2,46.7,30.04,SW,234,3.0,3.0,61,0.00,,,0.00,WeatherCatV1.21B27,2013-09-28 07:42:00,
2013-09-28 00:47:00,60.5,46.5,30.04,SW,228,4.0,4.0,60,0.00,,,0.00,WeatherCatV1.21B27,2013-09-28 07:47:00,
2013-09-28 00:52:00,60.6,46.6,30.04,SW,236,3.0,4.0,60,0.00,,,0.00,WeatherCatV1.21B27,2013-09-28 07:52:00,
2013-09-28 00:57:00,60.4,46.5,30.04,WSW,241,3.0,3.0,60,0.00,,,0.00,WeatherCatV1.21B27,2013-09-28 07:57:00,
2013-09-28 01:02:00,60.2,46.7,30.04,WSW,248,3.0,4.0,61,0.00,,,0.00,WeatherCatV1.21B27,2013-09-28 08:02:00,
2013-09-28 01:07:00,60.1,46.6,30.04,WSW,244,3.0,3.0,61,0.00,,,0.00,WeatherCatV1.21B27,2013-09-28 08:07:00,
2013-09-28 01:12:00,60.1,46.6,30.04,SW,217,2.0,3.0,61,0.00,,,0.00,WeatherCatV1.21B27,2013-09-28 08:12:00,
2013-09-28 01:17:00,60.2,46.7,30.04,WSW,248,3.0,4.0,61,0.00,,,0.00,WeatherCatV1.21B27,2013-09-28 08:17:00,
2013-09-28 01:22:00,60.2,46.7,30.04,SW,226,3.0,4.0,61,0.00,,,0.00,WeatherCatV1.21B27,2013-09-28 08:22:00,
2013-09-28 01:27:00,60.1,47.0,30.04,SW,230,3.0,4.0,62,0.00,,,0.00,WeatherCatV1.21B27,2013-09-28 08:27:00,
2013-09-28 01:32:00,59.9,47.3,30.04,SW,215,1.0,3.0,63,0.00,,,0.00,WeatherCatV1.21B27,2013-09-28 08:32:00,
2013-09-28 01:37:00,59.8,47.6,30.05,SW,236,2.0,3.0,64,0.00,,,0.00,WeatherCatV1.21B27,2013-09-28 08:37:00,
2013-09-28 01:42:00,59.7,47.5,30.04,SW,214,2.0,3.0,64,0.00,,,0.00,WeatherCatV1.21B27,2013-09-28 08:42:00,
2013-09-28 01:47:00,59.5,47.7,30.05,SW,228,4.0,4.0,65,0.00,,,0.00,WeatherCatV1.21B27,2013-09-28 08:47:00,
2013-09-28 01:52:00,59.4,47.6,30.04,WSW,241,4.0,4.0,65,0.00,,,0.00,WeatherCatV1.21B27,2013-09-28 08:52:00,
2013-09-28 01:57:00,59.3,47.9,30.04,WSW,238,3.0,4.0,66,0.00,,,0.00,WeatherCatV1.21B27,2013-09-28 08:57:00,
2013-09-28 02:02:00,59.1,48.2,30.04,WSW,240,3.0,4.0,67,0.00,,,0.00,WeatherCatV1.21B27,2013-09-28 09:02:00,
2013-09-28 02:07:00,58.9,48.8,30.04,WSW,245,4.0,4.0,69,0.00,,,0.00,WeatherCatV1.21B27,2013-09-28 09:07:00,
2013-09-28 02:12:00,58.8,49.0,30.04,SW,231,5.0,6.0,70,0.00,,,0.00,WeatherCatV1.21B27,2013-09-28 09:12:00,
2013-09-28 02:17:00,58.6,49.6,30.04,WSW,238,5.0,6.0,72,0.00,,,0.00,WeatherCatV1.21B27,2013-09-28 09:17:00,
2013-09-28 02:22:00,58.6,50.0,30.04,SW,224,5.0,5.0,73,0.00,,,0.00,WeatherCatV1.21B27,2013-09-28 09:22:00,
2013-09-28 02:27:00,58.4,50.1,30.04,SW,229,5.0,5.0,74,0.00,,,0.00,WeatherCatV1.21B27,2013-09-28 09:27:00,
2013-09-28 02:32:00,58.2,50.3,30.04,SW,236,5.0,5.0,75,0.00,,,0.00,WeatherCatV1.21B27,2013-09-28 09:32:00,
2013-09-28 02:37:00,58.1,50.6,30.04,SW,233,4.0,5.0,76,0.00,,,0.00,WeatherCatV1.21B27,2013-09-28 09:37:00,
2013-09-28 02:42:00,58.0,50.8,30.04,SW,220,5.0,5.0,77,0.00,,,0.00,WeatherCatV1.21B27,2013-09-28 09:42:00,
2013-09-28 02:47:00,58.0,50.8,30.03,SW,217,5.0,5.0,77,0.00,,,0.00,WeatherCatV1.21B27,2013-09-28 09:47:00,
2013-09-28 02:52:00,58.0,51.2,30.03,SW,235,5.0,6.0,78,0.00,,,0.00,WeatherCatV1.21B27,2013-09-28 09:52:00,
2013-09-28 02:57:00,58.1,51.3,30.03,WSW,248,4.0,5.0,78,0.00,,,0.00,WeatherCatV1.21B27,2013-09-28 09:57:00,
2013-09-28 03:02:00,58.0,51.2,30.03,WSW,252,3.0,5.0,78,0.00,,,0.00,WeatherCatV1.21B27,2013-09-28 10:02:00,
2013-09-28 03:07:00,58.1,51.3,30.03,SW,229,5.0,5.0,78,0.00,,,0.00,WeatherCatV1.21B27,2013-09-28 10:07:00,
2013-09-28 03:12:00,58.2,51.7,30.03,WSW,248,3.0,5.0,79,0.00,,,0.00,WeatherCatV1.21B27,2013-09-28 10:12:00,
2013-09-28 03:17:00,58.1,51.6,30.02,WSW,254,3.0,4.0,79,0.00,,,0.00,WeatherCatV1.21B27,2013-09-28 10:17:00,
2013-09-28 03:22:00,58.0,51.9,30.03,SW,233,4.0,6.0,80,0.00,,,0.00,WeatherCatV1.21B27,2013-09-28 10:22:00,
2013-09-28 03:27:00,58.0,51.9,30.02,SW,234,3.0,5.0,80,0.00,,,0.00,WeatherCatV1.21B27,2013-09-28 10:27:00,
2013-09-28 03:32:00,57.9,52.1,30.02,SW,234,4.0,4.0,81,0.00,,,0.00,WeatherCatV1.21B27,2013-09-28 10:32:00,
2013-09-28 03:37:00,57.9,52.1,30.02,SW,236,2.0,4.0,81,0.00,,,0.00,WeatherCatV1.21B27,2013-09-28 10:37:00,
2013-09-28 03:42:00,58.2,52.7,30.03,WSW,247,3.0,4.0,82,0.00,,,0.00,WeatherCatV1.21B27,2013-09-28 10:42:00,
2013-09-28 03:47:00,58.3,52.8,30.02,WSW,244,2.0,2.0,82,0.00,,,0.00,WeatherCatV1.21B27,2013-09-28 10:47:00,
2013-09-28 03:52:00,58.4,53.2,30.02,SW,233,3.0,4.0,83,0.00,,,0.00,WeatherCatV1.21B27,2013-09-28 10:52:00,
2013-09-28 03:57:00,58.4,52.9,30.02,WSW,252,3.0,4.0,82,0.00,,,0.00,WeatherCatV1.21B27,2013-09-28 10:57:00,
2013-09-28 04:02:00,58.4,52.9,30.02,WSW,240,2.0,3.0,82,0.00,,,0.00,WeatherCatV1.21B27,2013-09-28 11:02:00,
2013-09-28 04:07:00,58.4,52.9,30.02,WSW,243,3.0,4.0,82,0.00,,,0.00,WeatherCatV1.21B27,2013-09-28 11:07:00,
2013-09-28 04:12:00,58.4,52.9,30.02,WSW,250,3.0,4.0,82,0.00,,,0.00,WeatherCatV1.21B27,2013-09-28 11:12:00,
2013-09-28 04:17:00,58.3,52.8,30.02,SW,226,4.0,4.0,82,0.00,,,0.00,WeatherCatV1.21B27,2013-09-28 11:17:00,
2013-09-28 04:22:00,58.1,52.3,30.02,WSW,250,2.0,4.0,81,0.00,,,0.00,WeatherCatV1.21B27,2013-09-28 11:22:00,
2013-09-28 04:27:00,58.1,51.6,30.02,WSW,249,3.0,3.0,79,0.00,,,0.00,WeatherCatV1.21B27,2013-09-28 11:27:00,
2013-09-28 04:32:00,58.2,51.4,30.02,WSW,248,3.0,3.0,78,0.00,,,0.00,WeatherCatV1.21B27,2013-09-28 11:32:00,
2013-09-28 04:37:00,58.3,51.5,30.02,WSW,250,2.0,3.0,78,0.00,,,0.00,WeatherCatV1.21B27,2013-09-28 11:37:00,
2013-09-28 04:42:00,58.6,52.1,30.02,WSW,243,2.0,3.0,79,0.00,,,0.00,WeatherCatV1.21B27,2013-09-28 11:42:00,
2013-09-28 04:47:00,58.5,52.0,30.02,SW,236,2.0,3.0,79,0.00,,,0.00,WeatherCatV1.21B27,2013-09-28 11:47:00,
2013-09-28 04:52:00,58.5,52.3,30.02,WSW,243,2.0,4.0,80,0.00,,,0.00,WeatherCatV1.21B27,2013-09-28 11:52:00,
2013-09-28 04:57:00,58.5,52.7,30.02,WSW,240,2.0,3.0,81,0.00,,,0.00,WeatherCatV1.21B27,2013-09-28 11:57:00,
2013-09-28 05:02:00,58.7,52.9,30.02,SW,235,1.0,2.0,81,0.00,,,0.00,WeatherCatV1.21B27,2013-09-28 12:02:00,
2013-09-28 05:07:00,58.8,53.0,30.02,WSW,239,1.0,1.0,81,0.00,,,0.00,WeatherCatV1.21B27,2013-09-28 12:07:00,
2013-09-28 05:12:00,58.8,53.0,30.03,SSW,205,0.0,0.0,81,0.00,,,0.00,WeatherCatV1.21B27,2013-09-28 12:12:00,
2013-09-28 05:17:00,58.8,53.3,30.02,SW,233,1.0,1.0,82,0.00,,,0.00,WeatherCatV1.21B27,2013-09-28 12:17:00,
2013-09-28 05:22:00,58.7,53.2,30.03,SW,236,1.0,2.0,82,0.00,,,0.00,WeatherCatV1.21B27,2013-09-28 12:22:00,
2013-09-28 05:27:00,58.7,53.2,30.03,WSW,237,0.0,1.0,82,0.00,,,0.00,WeatherCatV1.21B27,2013-09-28 12:27:00,
2013-09-28 05:32:00,58.8,53.0,30.03,WSW,240,2.0,2.0,81,0.00,,,0.00,WeatherCatV1.21B27,2013-09-28 12:32:00,
2013-09-28 05:37:00,58.7,52.9,30.03,SW,230,0.0,1.0,81,0.00,,,0.00,WeatherCatV1.21B27,2013-09-28 12:37:00,
2013-09-28 05:42:00,58.5,52.7,30.03,SW,233,1.0,2.0,81,0.00,,,0.00,WeatherCatV1.21B27,2013-09-28 12:42:00,
2013-09-28 05:47:00,58.4,52.6,30.03,SW,233,1.0,1.0,81,0.00,,,0.00,WeatherCatV1.21B27,2013-09-28 12:47:00,
2013-09-28 05:52:00,58.2,52.7,30.03,SW,236,0.0,0.0,82,0.00,,,0.00,WeatherCatV1.21B27,2013-09-28 12:52:00,
2013-09-28 05:57:00,58.0,52.9,30.03,SW,236,0.0,0.0,83,0.00,,,0.00,WeatherCatV1.21B27,2013-09-28 12:57:00,
2013-09-28 06:02:00,58.1,53.0,30.03,SW,236,0.0,0.0,83,0.00,,,0.00,WeatherCatV1.21B27,2013-09-28 13:02:00,
2013-09-28 06:07:00,58.0,52.9,30.03,SW,236,0.0,0.0,83,0.00,,,0.00,WeatherCatV1.21B27,2013-09-28 13:07:00,
2013-09-28 06:12:00,57.7,52.6,30.03,SW,236,0.0,0.0,83,0.00,,,0.00,WeatherCatV1.21B27,2013-09-28 13:12:00,
2013-09-28 06:17:00,57.4,52.6,30.04,WSW,237,1.0,1.0,84,0.00,,,0.00,WeatherCatV1.21B27,2013-09-28 13:17:00,
2013-09-28 06:22:00,57.5,53.0,30.04,NNE,15,0.0,1.0,85,0.00,,,0.00,WeatherCatV1.21B27,2013-09-28 13:22:00,
2013-09-28 06:27:00,57.7,53.2,30.04,NNE,15,1.0,1.0,85,0.00,,,0.00,WeatherCatV1.21B27,2013-09-28 13:27:00,
2013-09-28 06:32:00,57.9,53.4,30.04,NNE,15,0.0,1.0,85,0.00,,,0.00,WeatherCatV1.21B27,2013-09-28 13:32:00,
2013-09-28 06:37:00,57.9,53.1,30.04,NNE,15,0.0,1.0,84,0.00,,,0.00,WeatherCatV1.21B27,2013-09-28 13:37:00,
2013-09-28 06:42:00,57.9,52.8,30.04,NNE,15,0.0,1.0,83,0.00,,,0.00,WeatherCatV1.21B27,2013-09-28 13:42:00,
2013-09-28 06:47:00,57.7,52.6,30.04,NNE,15,1.0,1.0,83,0.00,,,0.00,WeatherCatV1.21B27,2013-09-28 13:47:00,
2013-09-28 06:52:00,57.6,52.5,30.05,NNE,15,1.0,1.0,83,0.00,,,0.00,WeatherCatV1.21B27,2013-09-28 13:52:00,
2013-09-28 06:57:00,57.5,52.0,30.05,NNE,15,0.0,1.0,82,0.00,,,0.00,WeatherCatV1.21B27,2013-09-28 13:57:00,
2013-09-28 07:02:00,57.3,52.2,30.05,NNE,15,0.0,1.0,83,0.00,,,0.00,WeatherCatV1.21B27,2013-09-28 14:02:00,
2013-09-28 07:07:00,57.4,52.9,30.05,NNE,15,1.0,1.0,85,0.00,,,0.00,WeatherCatV1.21B27,2013-09-28 14:07:00,
2013-09-28 07:12:00,57.4,53.2,30.05,NNE,15,0.0,1.0,86,0.00,,,0.00,WeatherCatV1.21B27,2013-09-28 14:12:00,
2013-09-28 07:17:00,57.3,53.2,30.05,NNE,15,0.0,1.0,86,0.00,,,0.00,WeatherCatV1.21B27,2013-09-28 14:17:00,
2013-09-28 07:22:00,57.3,53.5,30.05,NNE,15,1.0,1.0,87,0.00,,,0.00,WeatherCatV1.21B27,2013-09-28 14:22:00,
2013-09-28 07:27:00,57.4,53.2,30.05,NNE,15,1.0,1.0,86,0.00,,,0.00,WeatherCatV1.21B27,2013-09-28 14:27:00,
2013-09-28 07:32:00,57.4,52.9,30.05,NNE,15,1.0,1.0,85,0.00,,,0.00,WeatherCatV1.21B27,2013-09-28 14:32:00,
2013-09-28 07:37:00,57.5,53.3,30.05,NNE,20,2.0,2.0,86,0.00,,,0.00,WeatherCatV1.21B27,2013-09-28 14:37:00,
2013-09-28 07:42:00,57.5,53.0,30.06,NNE,23,1.0,2.0,85,0.00,,,0.00,WeatherCatV1.21B27,2013-09-28 14:42:00,
2013-09-28 07:47:00,57.6,53.1,30.06,NNE,23,2.0,2.0,85,0.00,,,0.00,WeatherCatV1.21B27,2013-09-28 14:47:00,
2013-09-28 07:52:00,57.6,53.4,30.06,NNE,25,2.0,2.0,86,0.00,,,0.00,WeatherCatV1.21B27,2013-09-28 14:52:00,
2013-09-28 07:57:00,57.6,53.4,30.06,NNE,30,2.0,2.0,86,0.00,,,0.00,WeatherCatV1.21B27,2013-09-28 14:57:00,
2013-09-28 08:02:00,57.7,53.5,30.06,NNE,32,2.0,2.0,86,0.00,,,0.00,WeatherCatV1.21B27,2013-09-28 15:02:00,
2013-09-28 08:07:00,57.7,53.5,30.06,NE,39,2.0,2.0,86,0.00,,,0.00,WeatherCatV1.21B27,2013-09-28 15:07:00,
2013-09-28 08:12:00,57.9,53.7,30.06,NE,34,2.0,2.0,86,0.00,,,0.00,WeatherCatV1.21B27,2013-09-28 15:12:00,
2013-09-28 08:17:00,58.0,53.5,30.06,NE,35,1.0,1.0,85,0.00,,,0.00,WeatherCatV1.21B27,2013-09-28 15:17:00,
2013-09-28 08:22:00,58.2,53.7,30.06,NE,34,0.0,2.0,85,0.00,,,0.00,WeatherCatV1.21B27,2013-09-28 15:22:00,
2013-09-28 08:27:00,58.5,53.7,30.06,NE,34,2.0,2.0,84,0.00,,,0.00,WeatherCatV1.21B27,2013-09-28 15:27:00,
2013-09-28 08:32:00,58.7,53.9,30.06,NE,34,1.0,2.0,84,0.00,,,0.00,WeatherCatV1.21B27,2013-09-28 15:32:00,
2013-09-28 08:37:00,58.9,53.7,30.06,NE,34,1.0,1.0,83,0.00,,,0.00,WeatherCatV1.21B27,2013-09-28 15:37:00,
2013-09-28 08:42:00,59.1,53.6,30.07,NE,34,1.0,1.0,82,0.00,,,0.00,WeatherCatV1.21B27,2013-09-28 15:42:00,
2013-09-28 08:47:00,59.3,53.8,30.07,NE,34,0.0,1.0,82,0.00,,,0.00,WeatherCatV1.21B27,2013-09-28 15:47:00,
2013-09-28 08:52:00,59.6,54.1,30.07,NE,34,0.0,1.0,82,0.00,,,0.00,WeatherCatV1.21B27,2013-09-28 15:52:00,
2013-09-28 08:57:00,59.8,54.0,30.07,NE,34,1.0,1.0,81,0.00,,,0.00,WeatherCatV1.21B27,2013-09-28 15:57:00,
2013-09-28 09:02:00,60.1,53.9,30.07,NE,34,0.0,1.0,80,0.00,,,0.00,WeatherCatV1.21B27,2013-09-28 16:02:00,
2013-09-28 09:07:00,61.1,52.8,30.07,WSW,244,0.0,1.0,74,0.00,,,0.00,WeatherCatV1.21B27,2013-09-28 16:07:00,
2013-09-28 09:12:00,61.9,52.4,30.07,SW,230,0.0,0.0,71,0.00,,,0.00,WeatherCatV1.21B27,2013-09-28 16:12:00,
2013-09-28 09:17:00,62.8,50.0,30.07,SW,227,0.0,0.0,63,0.00,,,0.00,WeatherCatV1.21B27,2013-09-28 16:17:00,
2013-09-28 09:22:00,63.5,49.8,30.07,SW,226,1.0,2.0,61,0.00,,,0.00,WeatherCatV1.21B27,2013-09-28 16:22:00,
2013-09-28 09:27:00,64.0,51.6,30.07,SW,219,0.0,2.0,64,0.00,,,0.00,WeatherCatV1.21B27,2013-09-28 16:27:00,
2013-09-28 09:32:00,64.5,48.9,30.07,SW,220,2.0,3.0,57,0.00,,,0.00,WeatherCatV1.21B27,2013-09-28 16:32:00,
2013-09-28 09:37:00,65.3,51.5,30.07,SSW,204,0.0,1.0,61,0.00,,,0.00,WeatherCatV1.21B27,2013-09-28 16:37:00,
2013-09-28 09:42:00,66.1,50.9,30.07,WSW,240,1.0,2.0,58,0.00,,,0.00,WeatherCatV1.21B27,2013-09-28 16:42:00,
2013-09-28 09:47:00,66.5,49.8,30.07,SW,217,0.0,1.0,55,0.00,,,0.00,WeatherCatV1.21B27,2013-09-28 16:47:00,
2013-09-28 09:52:00,67.3,52.0,30.07,WSW,238,1.0,2.0,58,0.00,,,0.00,WeatherCatV1.21B27,2013-09-28 16:52:00,
2013-09-28 09:57:00,67.3,52.0,30.07,WSW,251,2.0,3.0,58,0.00,,,0.00,WeatherCatV1.21B27,2013-09-28 16:57:00,
2013-09-28 10:02:00,67.2,50.5,30.08,WSW,248,2.0,2.0,55,0.00,,,0.00,WeatherCatV1.21B27,2013-09-28 17:02:00,
2013-09-28 10:07:00,67.2,50.0,30.08,WSW,246,2.0,3.0,54,0.00,,,0.00,WeatherCatV1.21B27,2013-09-28 17:07:00,
2013-09-28 10:12:00,67.4,50.7,30.08,WSW,249,2.0,3.0,55,0.00,,,0.00,WeatherCatV1.21B27,2013-09-28 17:12:00,
2013-09-28 10:17:00,67.5,50.3,30.08,WSW,243,1.0,2.0,54,0.00,,,0.00,WeatherCatV1.21B27,2013-09-28 17:17:00,
2013-09-28 10:22:00,67.8,50.5,30.08,WSW,238,2.0,2.0,54,0.00,,,0.00,WeatherCatV1.21B27,2013-09-28 17:22:00,
2013-09-28 10:27:00,68.6,52.3,30.08,SW,220,1.0,3.0,56,0.00,,,0.00,WeatherCatV1.21B27,2013-09-28 17:27:00,
2013-09-28 10:32:00,68.9,52.5,30.08,SSW,207,0.0,2.0,56,0.00,,,0.00,WeatherCatV1.21B27,2013-09-28 17:32:00,
2013-09-28 10:37:00,69.2,54.2,30.08,SW,228,2.0,2.0,59,0.00,,,0.00,WeatherCatV1.21B27,2013-09-28 17:37:00,
2013-09-28 10:42:00,69.4,54.0,30.08,SSW,205,0.0,4.0,58,0.00,,,0.00,WeatherCatV1.21B27,2013-09-28 17:42:00,
2013-09-28 10:47:00,69.7,54.2,30.08,WSW,240,2.0,3.0,58,0.00,,,0.00,WeatherCatV1.21B27,2013-09-28 17:47:00,
2013-09-28 10:52:00,70.0,54.0,30.08,SW,229,2.0,3.0,57,0.00,,,0.00,WeatherCatV1.21B27,2013-09-28 17:52:00,
2013-09-28 10:57:00,70.2,53.3,30.08,WSW,238,0.0,3.0,55,0.00,,,0.00,WeatherCatV1.21B27,2013-09-28 17:57:00,
2013-09-28 11:02:00,70.4,49.2,30.08,WSW,239,0.0,1.0,47,0.00,,,0.00,WeatherCatV1.21B27,2013-09-28 18:02:00,
2013-09-28 11:07:00,70.6,51.0,30.08,WSW,244,2.0,4.0,50,0.00,,,0.00,WeatherCatV1.21B27,2013-09-28 18:07:00,
2013-09-28 11:12:00,70.9,51.3,30.08,SSW,208,1.0,3.0,50,0.00,,,0.00,WeatherCatV1.21B27,2013-09-28 18:12:00,
2013-09-28 11:17:00,71.3,51.1,30.08,SSW,195,2.0,3.0,49,0.00,,,0.00,WeatherCatV1.21B27,2013-09-28 18:17:00,
2013-09-28 11:22:00,71.7,50.4,30.08,WSW,247,1.0,3.0,47,0.00,,,0.00,WeatherCatV1.21B27,2013-09-28 18:22:00,
2013-09-28 11:27:00,72.2,50.8,30.08,SSW,205,0.0,3.0,47,0.00,,,0.00,WeatherCatV1.21B27,2013-09-28 18:27:00,
2013-09-28 11:32:00,72.6,49.4,30.08,WSW,249,2.0,2.0,44,0.00,,,0.00,WeatherCatV1.21B27,2013-09-28 18:32:00,
2013-09-28 11:37:00,73.0,48.5,30.08,WSW,245,2.0,4.0,42,0.00,,,0.00,WeatherCatV1.21B27,2013-09-28 18:37:00,
2013-09-28 11:42:00,73.3,50.7,30.08,SW,217,2.0,4.0,45,0.00,,,0.00,WeatherCatV1.21B27,2013-09-28 18:42:00,
2013-09-28 11:47:00,74.1,50.8,30.08,WSW,258,2.0,3.0,44,0.00,,,0.00,WeatherCatV1.21B27,2013-09-28 18:47:00,
2013-09-28 11:52:00,74.4,50.4,30.08,SSW,213,3.0,4.0,43,0.00,,,0.00,WeatherCatV1.21B27,2013-09-28 18:52:00,
2013-09-28 11:57:00,74.2,47.6,30.08,WSW,251,2.0,4.0,39,0.00,,,0.00,WeatherCatV1.21B27,2013-09-28 18:57:00,
2013-09-28 12:02:00,74.8,48.8,30.07,WSW,237,2.0,4.0,40,0.00,,,0.00,WeatherCatV1.21B27,2013-09-28 19:02:00,
2013-09-28 12:07:00,74.2,49.6,30.07,WSW,248,3.0,4.0,42,0.00,,,0.00,WeatherCatV1.21B27,2013-09-28 19:07:00,
2013-09-28 12:12:00,74.0,49.4,30.07,WSW,254,4.0,4.0,42,0.00,,,0.00,WeatherCatV1.21B27,2013-09-28 19:12:00,
2013-09-28 12:17:00,74.6,50.0,30.07,SSW,212,1.0,4.0,42,0.00,,,0.00,WeatherCatV1.21B27,2013-09-28 19:17:00,
2013-09-28 12:22:00,74.6,47.3,30.07,SW,235,2.0,4.0,38,0.00,,,0.00,WeatherCatV1.21B27,2013-09-28 19:22:00,
2013-09-28 12:27:00,74.6,48.0,30.07,SSW,193,1.0,5.0,39,0.00,,,0.00,WeatherCatV1.21B27,2013-09-28 19:27:00,
2013-09-28 12:32:00,74.4,47.1,30.07,SW,230,5.0,5.0,38,0.00,,,0.00,WeatherCatV1.21B27,2013-09-28 19:32:00,
2013-09-28 12:37:00,74.3,47.0,30.07,WSW,255,4.0,4.0,38,0.00,,,0.00,WeatherCatV1.21B27,2013-09-28 19:37:00,
2013-09-28 12:42:00,74.2,46.2,30.07,WSW,252,4.0,5.0,37,0.00,,,0.00,WeatherCatV1.21B27,2013-09-28 19:42:00,
2013-09-28 12:47:00,74.6,45.9,30.06,WSW,241,6.0,7.0,36,0.00,,,0.00,WeatherCatV1.21B27,2013-09-28 19:47:00,
2013-09-28 12:52:00,75.1,45.6,30.06,WSW,246,4.0,5.0,35,0.00,,,0.00,WeatherCatV1.21B27,2013-09-28 19:52:00,
2013-09-28 12:57:00,75.2,44.9,30.06,WSW,253,5.0,7.0,34,0.00,,,0.00,WeatherCatV1.21B27,2013-09-28 19:57:00,
2013-09-28 13:02:00,75.1,43.2,30.06,WSW,256,5.0,7.0,32,0.00,,,0.00,WeatherCatV1.21B27,2013-09-28 20:02:00,
2013-09-28 13:07:00,75.4,42.6,30.06,SSW,198,6.0,6.0,31,0.00,,,0.00,WeatherCatV1.21B27,2013-09-28 20:07:00,
2013-09-28 13:12:00,75.6,44.5,30.05,South,188,3.0,7.0,33,0.00,,,0.00,WeatherCatV1.21B27,2013-09-28 20:12:00,
2013-09-28 13:17:00,76.3,42.6,30.05,WSW,252,7.0,8.0,30,0.00,,,0.00,WeatherCatV1.21B27,2013-09-28 20:17:00,
2013-09-28 13:22:00,76.1,39.7,30.05,WSW,240,4.0,10.0,27,0.00,,,0.00,WeatherCatV1.21B27,2013-09-28 20:22:00,
2013-09-28 13:27:00,76.2,40.7,30.05,WSW,245,8.0,10.0,28,0.00,,,0.00,WeatherCatV1.21B27,2013-09-28 20:27:00,
2013-09-28 13:32:00,76.7,40.2,30.05,WSW,257,6.0,7.0,27,0.00,,,0.00,WeatherCatV1.21B27,2013-09-28 20:32:00,
2013-09-28 13:37:00,77.1,41.5,30.05,SSW,208,5.0,8.0,28,0.00,,,0.00,WeatherCatV1.21B27,2013-09-28 20:37:00,
2013-09-28 13:42:00,77.4,41.7,30.04,WSW,257,4.0,10.0,28,0.00,,,0.00,WeatherCatV1.21B27,2013-09-28 20:42:00,
2013-09-28 13:47:00,77.1,42.4,30.04,SW,224,7.0,12.0,29,0.00,,,0.00,WeatherCatV1.21B27,2013-09-28 20:47:00,
2013-09-28 13:52:00,77.4,42.6,30.04,WSW,258,7.0,9.0,29,0.00,,,0.00,WeatherCatV1.21B27,2013-09-28 20:52:00,
2013-09-28 13:57:00,77.1,43.3,30.04,WSW,252,5.0,10.0,30,0.00,,,0.00,WeatherCatV1.21B27,2013-09-28 20:57:00,
2013-09-28 14:02:00,77.0,44.0,30.04,WSW,257,8.0,9.0,31,0.00,,,0.00,WeatherCatV1.21B27,2013-09-28 21:02:00,
2013-09-28 14:07:00,77.2,42.5,30.04,West,259,7.0,12.0,29,0.00,,,0.00,WeatherCatV1.21B27,2013-09-28 21:07:00,
2013-09-28 14:12:00,77.0,42.3,30.03,SW,219,9.0,12.0,29,0.00,,,0.00,WeatherCatV1.21B27,2013-09-28 21:12:00,
2013-09-28 14:17:00,76.7,42.0,30.03,WSW,252,8.0,12.0,29,0.00,,,0.00,WeatherCatV1.21B27,2013-09-28 21:17:00,
2013-09-28 14:22:00,76.8,41.2,30.03,SW,233,9.0,12.0,28,0.00,,,0.00,WeatherCatV1.21B27,2013-09-28 21:22:00,
2013-09-28 14:27:00,76.7,40.2,30.03,West,259,7.0,11.0,27,0.00,,,0.00,WeatherCatV1.21B27,2013-09-28 21:27:00,
2013-09-28 14:32:00,76.4,39.9,30.03,West,259,9.0,13.0,27,0.00,,,0.00,WeatherCatV1.21B27,2013-09-28 21:32:00,
2013-09-28 14:37:00,76.3,38.9,30.03,SW,224,11.0,13.0,26,0.00,,,0.00,WeatherCatV1.21B27,2013-09-28 21:37:00,
2013-09-28 14:42:00,76.3,39.8,30.03,West,263,8.0,12.0,27,0.00,,,0.00,WeatherCatV1.21B27,2013-09-28 21:42:00,
2013-09-28 14:47:00,76.3,38.9,30.03,WSW,255,6.0,10.0,26,0.00,,,0.00,WeatherCatV1.21B27,2013-09-28 21:47:00,
2013-09-28 14:52:00,76.4,38.0,30.03,WSW,251,7.0,9.0,25,0.00,,,0.00,WeatherCatV1.21B27,2013-09-28 21:52:00,
2013-09-28 14:57:00,76.5,38.0,30.03,WSW,249,8.0,12.0,25,0.00,,,0.00,WeatherCatV1.21B27,2013-09-28 21:57:00,
2013-09-28 15:02:00,76.4,38.0,30.03,WSW,238,5.0,10.0,25,0.00,,,0.00,WeatherCatV1.21B27,2013-09-28 22:02:00,
2013-09-28 15:07:00,76.0,37.6,30.02,WSW,257,5.0,9.0,25,0.00,,,0.00,WeatherCatV1.21B27,2013-09-28 22:07:00,
2013-09-28 15:12:00,76.3,38.9,30.02,WSW,250,8.0,9.0,26,0.00,,,0.00,WeatherCatV1.21B27,2013-09-28 22:12:00,
2013-09-28 15:17:00,76.4,39.9,30.02,WSW,245,8.0,8.0,27,0.00,,,0.00,WeatherCatV1.21B27,2013-09-28 22:17:00,
2013-09-28 15:22:00,76.8,42.1,30.02,WSW,257,8.0,12.0,29,0.00,,,0.00,WeatherCatV1.21B27,2013-09-28 22:22:00,
2013-09-28 15:27:00,76.0,40.5,30.02,SW,221,6.0,10.0,28,0.00,,,0.00,WeatherCatV1.21B27,2013-09-28 22:27:00,
2013-09-28 15:32:00,75.8,40.3,30.02,SSW,210,6.0,12.0,28,0.00,,,0.00,WeatherCatV1.21B27,2013-09-28 22:32:00,
2013-09-28 15:37:00,76.1,40.6,30.01,West,259,5.0,10.0,28,0.00,,,0.00,WeatherCatV1.21B27,2013-09-28 22:37:00,
2013-09-28 15:42:00,75.9,42.2,30.02,West,261,6.0,9.0,30,0.00,,,0.00,WeatherCatV1.21B27,2013-09-28 22:42:00,
2013-09-28 15:47:00,75.5,42.7,30.01,West,264,6.0,8.0,31,0.00,,,0.00,WeatherCatV1.21B27,2013-09-28 22:47:00,
2013-09-28 15:52:00,74.8,43.8,30.01,SW,218,6.0,14.0,33,0.00,,,0.00,WeatherCatV1.21B27,2013-09-28 22:52:00,
2013-09-28 15:57:00,74.2,43.2,30.01,SW,217,5.0,10.0,33,0.00,,,0.00,WeatherCatV1.21B27,2013-09-28 22:57:00,
2013-09-28 16:02:00,74.1,42.3,30.01,West,260,6.0,9.0,32,0.00,,,0.00,WeatherCatV1.21B27,2013-09-28 23:02:00,
2013-09-28 16:07:00,73.8,41.3,30.01,WSW,243,9.0,11.0,31,0.00,,,0.00,WeatherCatV1.21B27,2013-09-28 23:07:00,
2013-09-28 16:12:00,73.5,42.6,30.01,West,261,6.0,12.0,33,0.00,,,0.00,WeatherCatV1.21B27,2013-09-28 23:12:00,
2013-09-28 16:17:00,72.7,42.7,30.01,WSW,238,9.0,13.0,34,0.00,,,0.00,WeatherCatV1.21B27,2013-09-28 23:17:00,
2013-09-28 16:22:00,72.3,43.8,30.01,SW,229,9.0,14.0,36,0.00,,,0.00,WeatherCatV1.21B27,2013-09-28 23:22:00,
2013-09-28 16:27:00,72.4,43.9,30.01,WSW,251,10.0,14.0,36,0.00,,,0.00,WeatherCatV1.21B27,2013-09-28 23:27:00,
2013-09-28 16:32:00,72.4,44.6,30.01,West,262,7.0,13.0,37,0.00,,,0.00,WeatherCatV1.21B27,2013-09-28 23:32:00,
2013-09-28 16:37:00,72.5,44.7,30.01,WSW,251,11.0,13.0,37,0.00,,,0.00,WeatherCatV1.21B27,2013-09-28 23:37:00,
2013-09-28 16:42:00,72.8,45.7,30.01,SW,222,10.0,13.0,38,0.00,,,0.00,WeatherCatV1.21B27,2013-09-28 23:42:00,
2013-09-28 16:47:00,73.0,45.2,30.01,WSW,252,7.0,9.0,37,0.00,,,0.00,WeatherCatV1.21B27,2013-09-28 23:47:00,
2013-09-28 16:52:00,73.4,43.3,30.01,WSW,248,14.0,14.0,34,0.00,,,0.00,WeatherCatV1.21B27,2013-09-28 23:52:00,
2013-09-28 16:57:00,73.4,43.3,30.00,WSW,246,6.0,11.0,34,0.00,,,0.00,WeatherCatV1.21B27,2013-09-28 23:57:00,
2013-09-28 17:02:00,73.9,43.0,30.00,SW,226,5.0,9.0,33,0.00,,,0.00,WeatherCatV1.21B27,2013-09-29 00:02:00,
2013-09-28 17:07:00,73.7,43.6,30.01,WSW,250,5.0,11.0,34,0.00,,,0.00,WeatherCatV1.21B27,2013-09-29 00:07:00,
2013-09-28 17:12:00,73.8,42.9,30.01,WSW,248,5.0,8.0,33,0.00,,,0.00,WeatherCatV1.21B27,2013-09-29 00:12:00,
2013-09-28 17:17:00,74.1,43.9,30.00,SW,224,7.0,9.0,34,0.00,,,0.00,WeatherCatV1.21B27,2013-09-29 00:17:00,
2013-09-28 17:22:00,74.1,43.9,30.00,WSW,257,6.0,9.0,34,0.00,,,0.00,WeatherCatV1.21B27,2013-09-29 00:22:00,
2013-09-28 17:27:00,74.6,42.8,30.01,SW,221,10.0,10.0,32,0.00,,,0.00,WeatherCatV1.21B27,2013-09-29 00:27:00,
2013-09-28 17:32:00,74.6,44.4,30.01,WSW,255,7.0,10.0,34,0.00,,,0.00,WeatherCatV1.21B27,2013-09-29 00:32:00,
2013-09-28 17:37:00,74.6,45.1,30.00,WSW,248,6.0,9.0,35,0.00,,,0.00,WeatherCatV1.21B27,2013-09-29 00:37:00,
2013-09-28 17:42:00,74.5,44.3,30.01,WSW,257,9.0,9.0,34,0.00,,,0.00,WeatherCatV1.21B27,2013-09-29 00:42:00,
2013-09-28 17:47:00,74.5,45.8,30.01,SW,230,7.0,9.0,36,0.00,,,0.00,WeatherCatV1.21B27,2013-09-29 00:47:00,
2013-09-28 17:52:00,74.6,45.9,30.01,WSW,243,5.0,7.0,36,0.00,,,0.00,WeatherCatV1.21B27,2013-09-29 00:52:00,
2013-09-28 17:57:00,74.8,46.8,30.00,SW,231,1.0,6.0,37,0.00,,,0.00,WeatherCatV1.21B27,2013-09-29 00:57:00,
2013-09-28 18:03:00,75.1,47.7,30.01,SW,233,0.0,4.0,38,0.00,,,0.00,WeatherCatV1.21B27,2013-09-29 01:03:00,
2013-09-28 18:08:00,75.3,48.6,30.01,WSW,252,2.0,3.0,39,0.00,,,0.00,WeatherCatV1.21B27,2013-09-29 01:08:00,
2013-09-28 18:13:00,75.0,49.0,30.01,WSW,245,1.0,3.0,40,0.00,,,0.00,WeatherCatV1.21B27,2013-09-29 01:13:00,
2013-09-28 18:18:00,75.4,50.0,30.01,WSW,245,1.0,1.0,41,0.00,,,0.00,WeatherCatV1.21B27,2013-09-29 01:18:00,
2013-09-28 18:23:00,75.8,51.0,30.00,SW,227,1.0,1.0,42,0.00,,,0.00,WeatherCatV1.21B27,2013-09-29 01:23:00,
2013-09-28 18:28:00,75.4,51.3,30.00,SW,236,0.0,0.0,43,0.00,,,0.00,WeatherCatV1.21B27,2013-09-29 01:28:00,
2013-09-28 18:33:00,75.2,51.2,30.00,SW,236,0.0,1.0,43,0.00,,,0.00,WeatherCatV1.21B27,2013-09-29 01:33:00,
2013-09-28 18:38:00,74.5,52.9,30.00,SW,236,0.0,0.0,47,0.00,,,0.00,WeatherCatV1.21B27,2013-09-29 01:38:00,
2013-09-28 18:43:00,73.7,53.9,30.00,SW,236,0.0,0.0,50,0.00,,,0.00,WeatherCatV1.21B27,2013-09-29 01:43:00,
2013-09-28 18:48:00,72.7,54.6,30.00,SW,236,0.0,0.0,53,0.00,,,0.00,WeatherCatV1.21B27,2013-09-29 01:48:00,
2013-09-28 18:53:00,71.6,52.5,30.00,SW,236,0.0,0.0,51,0.00,,,0.00,WeatherCatV1.21B27,2013-09-29 01:53:00,
2013-09-28 18:58:00,70.8,52.3,30.00,SW,236,0.0,0.0,52,0.00,,,0.00,WeatherCatV1.21B27,2013-09-29 01:58:00,
2013-09-28 19:03:00,70.0,52.1,30.01,SW,236,0.0,0.0,53,0.00,,,0.00,WeatherCatV1.21B27,2013-09-29 02:03:00,
2013-09-28 19:08:00,69.3,53.4,30.01,SW,236,0.0,0.0,57,0.00,,,0.00,WeatherCatV1.21B27,2013-09-29 02:08:00,
2013-09-28 19:13:00,68.6,52.8,30.01,SW,236,0.0,0.0,57,0.00,,,0.00,WeatherCatV1.21B27,2013-09-29 02:13:00,
2013-09-28 19:18:00,68.1,53.7,30.01,SW,236,0.0,0.0,60,0.00,,,0.00,WeatherCatV1.21B27,2013-09-29 02:18:00,
2013-09-28 19:23:00,67.5,54.5,30.01,SW,236,0.0,0.0,63,0.00,,,0.00,WeatherCatV1.21B27,2013-09-29 02:23:00,
2013-09-28 19:28:00,66.9,55.2,30.01,NE,44,0.0,0.0,66,0.00,,,0.00,WeatherCatV1.21B27,2013-09-29 02:28:00,
2013-09-28 19:33:00,66.4,55.5,30.01,NE,38,1.0,1.0,68,0.00,,,0.00,WeatherCatV1.21B27,2013-09-29 02:33:00,
2013-09-28 19:38:00,65.9,56.2,30.02,NE,39,1.0,1.0,71,0.00,,,0.00,WeatherCatV1.21B27,2013-09-29 02:38:00,
2013-09-28 19:43:00,65.6,56.3,30.02,NNE,32,0.0,0.0,72,0.00,,,0.00,WeatherCatV1.21B27,2013-09-29 02:43:00,
2013-09-28 19:48:00,65.3,56.8,30.02,NNE,32,0.0,2.0,74,0.00,,,0.00,WeatherCatV1.21B27,2013-09-29 02:48:00,
2013-09-28 19:53:00,65.1,57.0,30.03,NNE,32,0.0,1.0,75,0.00,,,0.00,WeatherCatV1.21B27,2013-09-29 02:53:00,
2013-09-28 19:58:00,64.9,57.2,30.03,NE,38,0.0,3.0,76,0.00,,,0.00,WeatherCatV1.21B27,2013-09-29 02:58:00,
2013-09-28 20:03:00,64.7,57.0,30.04,NE,37,0.0,0.0,76,0.00,,,0.00,WeatherCatV1.21B27,2013-09-29 03:03:00,
2013-09-28 20:08:00,64.4,56.7,30.04,NE,37,0.0,0.0,76,0.00,,,0.00,WeatherCatV1.21B27,2013-09-29 03:08:00,
2013-09-28 20:13:00,64.2,56.8,30.04,NE,37,0.0,0.0,77,0.00,,,0.00,WeatherCatV1.21B27,2013-09-29 03:13:00,
2013-09-28 20:18:00,63.9,56.5,30.04,NE,37,1.0,1.0,77,0.00,,,0.00,WeatherCatV1.21B27,2013-09-29 03:18:00,
2013-09-28 20:23:00,63.6,56.6,30.05,NE,37,1.0,2.0,78,0.00,,,0.00,WeatherCatV1.21B27,2013-09-29 03:23:00,
2013-09-28 20:28:00,63.4,56.8,30.05,NE,37,1.0,1.0,79,0.00,,,0.00,WeatherCatV1.21B27,2013-09-29 03:28:00,
2013-09-28 20:33:00,63.2,56.6,30.04,NE,37,0.0,2.0,79,0.00,,,0.00,WeatherCatV1.21B27,2013-09-29 03:33:00,
2013-09-28 20:38:00,63.1,56.8,30.04,NE,37,1.0,2.0,80,0.00,,,0.00,WeatherCatV1.21B27,2013-09-29 03:38:00,
2013-09-28 20:43:00,63.1,57.2,30.04,NE,37,1.0,1.0,81,0.00,,,0.00,WeatherCatV1.21B27,2013-09-29 03:43:00,
2013-09-28 20:48:00,63.1,56.8,30.04,NE,37,0.0,0.0,80,0.00,,,0.00,WeatherCatV1.21B27,2013-09-29 03:48:00,
2013-09-28 20:53:00,63.1,56.8,30.04,NE,37,1.0,1.0,80,0.00,,,0.00,WeatherCatV1.21B27,2013-09-29 03:53:00,
2013-09-28 20:58:00,63.1,56.8,30.05,NE,37,1.0,1.0,80,0.00,,,0.00,WeatherCatV1.21B27,2013-09-29 03:58:00,
2013-09-28 21:01:00,63.0,56.7,30.05,NE,37,0.0,0.0,80,0.00,,,0.00,WeatherCatV1.21B27,2013-09-29 04:01:00,
2013-09-28 21:03:00,62.9,57.0,30.05,NE,37,0.0,0.0,81,0.00,,,0.00,WeatherCatV1.21B27,2013-09-29 04:03:00,
2013-09-28 21:08:00,62.8,56.9,30.05,SW,230,0.0,1.0,81,0.00,,,0.00,WeatherCatV1.21B27,2013-09-29 04:08:00,
2013-09-28 21:13:00,62.7,56.4,30.05,SW,227,0.0,1.0,80,0.00,,,0.00,WeatherCatV1.21B27,2013-09-29 04:13:00,
2013-09-28 21:18:00,62.6,56.3,30.05,WSW,245,0.0,1.0,80,0.00,,,0.00,WeatherCatV1.21B27,2013-09-29 04:18:00,
2013-09-28 21:23:00,62.5,56.2,30.05,WSW,245,0.0,0.0,80,0.00,,,0.00,WeatherCatV1.21B27,2013-09-29 04:23:00,
2013-09-28 21:28:00,62.4,56.1,30.05,WSW,245,0.0,0.0,80,0.00,,,0.00,WeatherCatV1.21B27,2013-09-29 04:28:00,
2013-09-28 21:33:00,62.3,56.4,30.05,WSW,245,0.0,0.0,81,0.00,,,0.00,WeatherCatV1.21B27,2013-09-29 04:33:00,
2013-09-28 21:38:00,62.2,56.3,30.06,WSW,250,0.0,0.0,81,0.00,,,0.00,WeatherCatV1.21B27,2013-09-29 04:38:00,
2013-09-28 21:43:00,62.0,56.4,30.05,WNW,302,0.0,0.0,82,0.00,,,0.00,WeatherCatV1.21B27,2013-09-29 04:43:00,
2013-09-28 21:48:00,61.8,56.2,30.06,WNW,302,0.0,0.0,82,0.00,,,0.00,WeatherCatV1.21B27,2013-09-29 04:48:00,
2013-09-28 21:53:00,61.5,56.3,30.06,WNW,303,0.0,0.0,83,0.00,,,0.00,WeatherCatV1.21B27,2013-09-29 04:53:00,
2013-09-28 21:58:00,61.3,56.8,30.06,WNW,299,0.0,0.0,85,0.00,,,0.00,WeatherCatV1.21B27,2013-09-29 04:58:00,
2013-09-28 22:03:00,61.1,57.2,30.06,SW,236,1.0,1.0,87,0.00,,,0.00,WeatherCatV1.21B27,2013-09-29 05:03:00,
2013-09-28 22:08:00,60.8,56.9,30.06,WSW,258,3.0,4.0,87,0.00,,,0.00,WeatherCatV1.21B27,2013-09-29 05:08:00,
2013-09-28 22:13:00,60.6,57.3,30.06,SSW,210,3.0,4.0,89,0.00,,,0.00,WeatherCatV1.21B27,2013-09-29 05:13:00,
2013-09-28 22:18:00,60.2,57.2,30.06,SW,229,3.0,4.0,90,0.00,,,0.00,WeatherCatV1.21B27,2013-09-29 05:18:00,
2013-09-28 22:23:00,59.8,57.2,30.06,WSW,245,3.0,5.0,91,0.00,,,0.00,WeatherCatV1.21B27,2013-09-29 05:23:00,
2013-09-28 22:28:00,59.5,57.2,30.06,SW,226,2.0,4.0,92,0.00,,,0.00,WeatherCatV1.21B27,2013-09-29 05:28:00,
2013-09-28 22:33:00,59.3,57.0,30.06,WSW,237,3.0,3.0,92,0.00,,,0.00,WeatherCatV1.21B27,2013-09-29 05:33:00,
2013-09-28 22:38:00,59.1,57.1,30.06,WSW,252,2.0,4.0,93,0.00,,,0.00,WeatherCatV1.21B27,2013-09-29 05:38:00,
2013-09-28 22:43:00,59.0,57.0,30.07,SW,226,0.0,1.0,93,0.00,,,0.00,WeatherCatV1.21B27,2013-09-29 05:43:00,
2013-09-28 22:48:00,59.1,57.1,30.07,SW,223,1.0,2.0,93,0.00,,,0.00,WeatherCatV1.21B27,2013-09-29 05:48:00,
2013-09-28 22:53:00,59.2,57.2,30.08,SW,224,0.0,1.0,93,0.00,,,0.00,WeatherCatV1.21B27,2013-09-29 05:53:00,
2013-09-28 22:58:00,59.1,57.1,30.08,SW,224,0.0,0.0,93,0.00,,,0.00,WeatherCatV1.21B27,2013-09-29 05:58:00,
2013-09-28 23:03:00,59.1,57.1,30.07,SW,234,0.0,2.0,93,0.00,,,0.00,WeatherCatV1.21B27,2013-09-29 06:03:00,
2013-09-28 23:08:00,59.3,57.3,30.07,SSW,212,1.0,1.0,93,0.00,,,0.00,WeatherCatV1.21B27,2013-09-29 06:08:00,
2013-09-28 23:13:00,59.4,57.4,30.07,SW,218,0.0,1.0,93,0.00,,,0.00,WeatherCatV1.21B27,2013-09-29 06:13:00,
2013-09-28 23:18:00,59.5,57.2,30.08,SSE,162,0.0,0.0,92,0.00,,,0.00,WeatherCatV1.21B27,2013-09-29 06:18:00,
2013-09-28 23:23:00,59.6,57.3,30.07,SSE,162,0.0,0.0,92,0.00,,,0.00,WeatherCatV1.21B27,2013-09-29 06:23:00,
2013-09-28 23:28:00,59.6,57.3,30.06,SSE,162,0.0,0.0,92,0.00,,,0.00,WeatherCatV1.21B27,2013-09-29 06:28:00,
2013-09-28 23:33:00,59.6,57.3,30.07,SSE,162,0.0,0.0,92,0.00,,,0.00,WeatherCatV1.21B27,2013-09-29 06:33:00,
2013-09-28 23:38:00,59.5,56.9,30.08,SSE,162,0.0,0.0,91,0.00,,,0.00,WeatherCatV1.21B27,2013-09-29 06:38:00,
2013-09-28 23:43:00,59.5,56.9,30.07,ESE,113,0.0,0.0,91,0.00,,,0.00,WeatherCatV1.21B27,2013-09-29 06:43:00,
2013-09-28 23:48:00,59.6,57.0,30.06,ESE,113,0.0,1.0,91,0.00,,,0.00,WeatherCatV1.21B27,2013-09-29 06:48:00,
2013-09-28 23:53:00,59.6,56.7,30.07,ESE,113,0.0,0.0,90,0.00,,,0.00,WeatherCatV1.21B27,2013-09-29 06:53:00,
2013-09-28 23:58:00,59.7,57.1,30.07,ESE,113,0.0,0.0,91,0.00,,,0.00,WeatherCatV1.21B27,2013-09-29 06:58:00,